createdAt,value
2023-02-26T00:00:24.989Z,15.51
2023-02-26T00:05:27.178Z,15.48
2023-02-26T00:10:29.358Z,15.59
2023-02-26T00:15:31.807Z,15.64
2023-02-26T00:20:34.796Z,15.61
2023-02-26T00:25:36.944Z,15.55
2023-02-26T00:30:39.882Z,15.52
2023-02-26T00:35:42.316Z,15.57
2023-02-26T00:40:45.842Z,15.48
2023-02-26T00:46:03.550Z,15.54
2023-02-26T00:51:37.607Z,15.49
2023-02-26T00:56:39.736Z,15.46
2023-02-26T01:01:42.478Z,15.35
2023-02-26T01:06:53.752Z,15.17
2023-02-26T01:11:58.587Z,15.19
2023-02-26T01:17:27.526Z,14.96
2023-02-26T01:22:36.510Z,14.99
2023-02-26T01:27:38.871Z,15.02
2023-02-26T01:33:11.584Z,15.02
2023-02-26T01:38:37.228Z,14.97
2023-02-26T01:43:45.577Z,14.83
2023-02-26T01:49:13.537Z,14.73
2023-02-26T01:54:20.102Z,14.61
2023-02-26T01:59:25.094Z,14.58
2023-02-26T02:04:27.660Z,14.76
2023-02-26T02:09:30.077Z,14.80
2023-02-26T02:14:57.437Z,14.87
2023-02-26T02:20:11.331Z,14.92
2023-02-26T02:25:50.047Z,15.08
2023-02-26T02:31:22.175Z,15.02
2023-02-26T02:36:43.652Z,15.05
2023-02-26T02:42:17.388Z,14.72
2023-02-26T02:47:22.249Z,14.54
2023-02-26T02:52:34.024Z,14.28
2023-02-26T02:58:00.927Z,14.18
2023-02-26T03:03:37.260Z,14.38
2023-02-26T03:08:42.292Z,14.41
2023-02-26T03:13:46.401Z,14.21
2023-02-26T03:19:09.421Z,14.02
2023-02-26T03:24:34.468Z,14.13
2023-02-26T03:29:45.412Z,13.99
2023-02-26T03:35:10.881Z,13.68
2023-02-26T03:40:20.978Z,13.53
2023-02-26T03:45:29.476Z,13.45
2023-02-26T03:50:49.854Z,13.43
2023-02-26T03:55:59.734Z,13.33
2023-02-26T04:01:09.813Z,13.39
2023-02-26T04:06:12.198Z,13.28
2023-02-26T04:11:20.485Z,13.12
2023-02-26T04:16:22.941Z,12.94
2023-02-26T04:21:25.397Z,13.12
2023-02-26T04:26:27.571Z,13.13
2023-02-26T04:31:29.981Z,13.14
2023-02-26T04:36:32.194Z,13.11
2023-02-26T04:41:34.304Z,12.93
2023-02-26T04:46:36.418Z,13.03
2023-02-26T04:51:38.559Z,13.07
2023-02-26T04:56:40.770Z,13.11
2023-02-26T05:01:42.993Z,12.89
2023-02-26T05:06:45.087Z,12.75
2023-02-26T05:11:48.317Z,12.72
2023-02-26T05:16:50.464Z,12.85
2023-02-26T05:21:52.603Z,12.88
2023-02-26T05:26:54.801Z,12.75
2023-02-26T05:31:57.149Z,12.63
2023-02-26T05:36:59.446Z,12.73
2023-02-26T05:42:01.755Z,12.74
2023-02-26T05:47:04.096Z,12.74
2023-02-26T05:52:06.277Z,12.85
2023-02-26T05:57:08.682Z,12.87
2023-02-26T06:02:10.934Z,12.91
2023-02-26T06:07:13.510Z,12.96
2023-02-26T06:12:15.653Z,13.21
2023-02-26T06:17:17.892Z,13.18
2023-02-26T06:22:20.460Z,13.25
2023-02-26T06:27:23.524Z,13.45
2023-02-26T06:32:25.771Z,13.51
2023-02-26T06:37:28.147Z,13.79
2023-02-26T06:42:30.269Z,13.74
2023-02-26T06:47:32.378Z,13.75
2023-02-26T06:52:35.478Z,13.50
2023-02-26T06:57:37.956Z,13.57
2023-02-26T07:02:40.219Z,13.59
2023-02-26T07:07:42.539Z,13.67
2023-02-26T07:12:44.652Z,13.67
2023-02-26T07:17:46.790Z,13.75
2023-02-26T07:22:49.734Z,13.92
2023-02-26T07:27:52.677Z,13.85
2023-02-26T07:32:55.203Z,13.95
2023-02-26T07:37:57.366Z,14.36
2023-02-26T07:42:59.625Z,14.65
2023-02-26T07:48:01.991Z,14.69
2023-02-26T07:53:04.200Z,14.97
2023-02-26T07:58:06.485Z,15.35
2023-02-26T08:03:08.663Z,15.80
2023-02-26T08:08:10.812Z,16.01
2023-02-26T08:13:13.005Z,16.37
2023-02-26T08:18:15.176Z,16.60
2023-02-26T08:23:17.380Z,16.84
2023-02-26T08:28:19.586Z,17.04
2023-02-26T08:33:23.462Z,17.34
2023-02-26T08:38:28.359Z,17.37
2023-02-26T08:43:30.612Z,17.57
2023-02-26T08:48:32.938Z,17.60
2023-02-26T08:53:35.215Z,17.39
2023-02-26T08:58:37.405Z,17.27
2023-02-26T09:03:40.000Z,17.14
2023-02-26T09:08:42.193Z,17.08
2023-02-26T09:13:44.325Z,17.08
2023-02-26T09:18:47.252Z,17.31
2023-02-26T09:23:49.749Z,17.28
2023-02-26T09:28:52.145Z,17.12
2023-02-26T09:33:54.274Z,17.69
2023-02-26T09:38:56.578Z,18.04
2023-02-26T09:44:16.638Z,18.43
2023-02-26T09:49:27.929Z,18.53
2023-02-26T09:54:37.074Z,18.65
2023-02-26T09:59:39.530Z,18.93
2023-02-26T10:04:50.109Z,19.14
2023-02-26T10:10:03.405Z,19.53
2023-02-26T10:15:14.134Z,19.55
2023-02-26T10:20:39.985Z,19.78
2023-02-26T10:25:50.176Z,19.99
2023-02-26T10:30:57.231Z,19.74
2023-02-26T10:36:10.995Z,19.76
2023-02-26T10:41:21.138Z,19.69
2023-02-26T10:46:44.805Z,19.61
2023-02-26T10:51:47.436Z,19.73
2023-02-26T10:56:49.556Z,19.93
2023-02-26T11:01:52.912Z,20.16
2023-02-26T11:07:05.485Z,20.10
2023-02-26T11:12:13.611Z,20.12
2023-02-26T11:17:19.811Z,20.14
2023-02-26T11:22:22.611Z,20.22
2023-02-26T11:27:32.405Z,20.29
2023-02-26T11:32:37.571Z,20.43
2023-02-26T11:37:41.737Z,20.37
2023-02-26T11:42:54.432Z,20.37
2023-02-26T11:48:03.293Z,20.31
2023-02-26T11:53:08.680Z,20.30
2023-02-26T11:58:39.453Z,20.35
2023-02-26T12:03:48.620Z,20.58
2023-02-26T12:08:53.047Z,20.62
2023-02-26T12:14:35.863Z,21.01
2023-02-26T12:19:41.122Z,21.26
2023-02-26T12:25:04.792Z,21.26
2023-02-26T12:30:16.030Z,21.30
2023-02-26T12:35:41.608Z,21.22
2023-02-26T12:41:04.055Z,21.49
2023-02-26T12:46:41.186Z,21.52
2023-02-26T12:52:27.843Z,21.58
2023-02-26T12:57:32.806Z,21.65
2023-02-26T13:02:57.674Z,21.71
2023-02-26T13:08:18.338Z,21.31
2023-02-26T13:13:41.271Z,21.14
2023-02-26T13:19:20.978Z,20.91
2023-02-26T13:24:37.390Z,20.71
2023-02-26T13:29:56.430Z,21.30
2023-02-26T13:35:22.942Z,21.35
2023-02-26T13:40:40.374Z,21.52
2023-02-26T13:46:06.791Z,21.59
2023-02-26T13:51:28.388Z,21.42
2023-02-26T13:56:33.553Z,21.61
2023-02-26T14:01:54.816Z,21.31
2023-02-26T14:07:15.763Z,21.65
2023-02-26T14:12:17.916Z,22.11
2023-02-26T14:17:28.951Z,22.02
2023-02-26T14:22:31.316Z,22.03
2023-02-26T14:27:33.551Z,22.17
2023-02-26T14:32:53.767Z,21.91
2023-02-26T14:38:09.155Z,22.02
2023-02-26T14:43:21.633Z,22.04
2023-02-26T14:48:29.772Z,21.53
2023-02-26T14:53:47.509Z,21.39
2023-02-26T14:59:10.357Z,21.16
2023-02-26T15:04:50.616Z,20.97
2023-02-26T15:10:04.595Z,21.09
2023-02-26T15:15:33.685Z,21.05
2023-02-26T15:20:38.535Z,20.96
2023-02-26T15:25:44.445Z,20.90
2023-02-26T15:30:49.288Z,20.86
2023-02-26T15:35:53.382Z,20.48
2023-02-26T15:41:00.132Z,20.05
2023-02-26T15:46:03.600Z,19.90
2023-02-26T15:51:09.457Z,19.97
2023-02-26T15:56:22.249Z,19.78
2023-02-26T16:01:27.156Z,19.89
2023-02-26T16:06:38.756Z,19.75
2023-02-26T16:11:43.572Z,19.63
2023-02-26T16:16:50.280Z,19.48
2023-02-26T16:21:54.803Z,19.67
2023-02-26T16:27:07.318Z,19.48
2023-02-26T16:32:12.812Z,19.46
2023-02-26T16:37:30.283Z,19.64
2023-02-26T16:42:45.405Z,19.63
2023-02-26T16:47:51.759Z,19.67
2023-02-26T16:53:09.883Z,19.74
2023-02-26T16:58:15.972Z,19.56
2023-02-26T17:03:21.043Z,19.11
2023-02-26T17:08:28.019Z,19.00
2023-02-26T17:13:34.411Z,19.02
2023-02-26T17:18:36.502Z,18.99
2023-02-26T17:23:39.410Z,18.85
2023-02-26T17:28:43.182Z,18.79
2023-02-26T17:33:45.998Z,18.53
2023-02-26T17:38:48.865Z,18.57
2023-02-26T17:43:51.157Z,18.59
2023-02-26T17:48:53.370Z,18.51
2023-02-26T17:53:55.666Z,18.43
2023-02-26T17:59:00.035Z,18.50
2023-02-26T18:04:03.882Z,18.28
2023-02-26T18:09:07.046Z,18.52
2023-02-26T18:14:11.970Z,18.24
2023-02-26T18:19:15.807Z,17.81
2023-02-26T18:24:17.930Z,17.42
2023-02-26T18:29:21.234Z,17.63
2023-02-26T18:34:23.311Z,17.36
2023-02-26T18:39:27.969Z,16.96
2023-02-26T18:44:30.110Z,16.83
2023-02-26T18:49:32.209Z,16.90
2023-02-26T18:54:34.302Z,16.97
2023-02-26T18:59:37.411Z,17.13
2023-02-26T19:04:40.430Z,17.05
2023-02-26T19:09:42.745Z,16.95
2023-02-26T19:14:45.001Z,17.16
2023-02-26T19:19:47.567Z,17.16
2023-02-26T19:24:49.916Z,17.31
2023-02-26T19:29:52.119Z,17.49
2023-02-26T19:34:54.282Z,17.11
2023-02-26T19:39:56.403Z,17.41
2023-02-26T19:44:59.150Z,17.24
2023-02-26T19:50:01.293Z,17.49
2023-02-26T19:55:05.764Z,17.61
2023-02-26T20:00:08.901Z,17.14
2023-02-26T20:05:16.288Z,17.03
2023-02-26T20:10:19.309Z,16.92
2023-02-26T20:15:21.540Z,16.71
2023-02-26T20:20:24.149Z,17.05
2023-02-26T20:25:26.420Z,16.84
2023-02-26T20:30:28.582Z,16.63
2023-02-26T20:35:30.710Z,16.68
2023-02-26T20:40:33.037Z,16.65
2023-02-26T20:45:39.365Z,16.57
2023-02-26T20:50:42.026Z,16.80
2023-02-26T20:55:44.385Z,17.17
2023-02-26T21:00:47.022Z,17.00
2023-02-26T21:05:49.937Z,17.15
2023-02-26T21:10:53.221Z,17.46
2023-02-26T21:15:55.647Z,17.50
2023-02-26T21:20:58.308Z,17.42
2023-02-26T21:26:00.588Z,17.44
2023-02-26T21:31:03.308Z,17.60
2023-02-26T21:36:06.687Z,17.37
2023-02-26T21:41:08.836Z,17.40
2023-02-26T21:46:10.998Z,17.36
2023-02-26T21:51:13.370Z,17.33
2023-02-26T21:56:16.234Z,17.30
2023-02-26T22:01:18.487Z,17.39
2023-02-26T22:06:20.604Z,17.41
2023-02-26T22:11:22.823Z,17.24
2023-02-26T22:16:25.172Z,17.28
2023-02-26T22:21:27.682Z,17.14
2023-02-26T22:26:30.759Z,17.07
2023-02-26T22:31:33.476Z,17.05
2023-02-26T22:36:36.643Z,17.05
2023-02-26T22:41:38.878Z,17.11
2023-02-26T22:46:41.168Z,17.15
2023-02-26T22:51:43.354Z,17.17
2023-02-26T22:56:45.576Z,17.40
2023-02-26T23:01:47.763Z,17.27
2023-02-26T23:06:49.993Z,17.08
2023-02-26T23:11:52.159Z,16.99
2023-02-26T23:16:54.565Z,17.04
2023-02-26T23:21:56.779Z,17.03
2023-02-26T23:26:59.111Z,17.03
2023-02-26T23:32:01.460Z,16.89
2023-02-26T23:37:03.671Z,16.72
2023-02-26T23:42:06.064Z,16.91
2023-02-26T23:47:08.303Z,16.82
2023-02-26T23:52:10.421Z,16.57
2023-02-26T23:57:12.562Z,16.72
